Time;durP1;ratioP1;P1;durP2;ratioP2;P2;SDS_P1;SDS_P2;PMS_P1;PMS_P2;Temp;Humidity;BMP_temperature;BMP_pressure;BME280_temperature;BME280_humidity;BME280_pressure;Samples;Min_cycle;Max_cycle;Signal;HPM_P1;HPM_P2
2022/05/18 00:01:50;;;;;;;3.80;2.00;;;22.10;56.00;;;;;;5091670;28;20188;-66
2022/05/18 00:04:15;;;;;;;4.07;2.05;;;22.10;56.10;;;;;;5092990;28;20544;-66
2022/05/18 00:06:41;;;;;;;2.60;1.92;;;22.10;56.10;;;;;;5095185;28;20221;-66
2022/05/18 00:09:06;;;;;;;3.63;2.00;;;22.00;56.00;;;;;;5096278;28;20174;-67
2022/05/18 00:11:32;;;;;;;2.95;1.70;;;22.00;56.00;;;;;;5096470;28;20174;-68
2022/05/18 00:13:58;;;;;;;2.35;1.88;;;22.00;56.00;;;;;;5095341;28;20178;-68
2022/05/18 00:16:24;;;;;;;2.72;2.10;;;22.10;56.10;;;;;;5096317;28;20176;-68
2022/05/18 00:18:49;;;;;;;5.35;2.10;;;22.00;56.10;;;;;;5095701;28;20236;-67
2022/05/18 00:21:15;;;;;;;2.50;1.80;;;22.00;56.10;;;;;;5095285;28;20617;-68
2022/05/18 00:23:41;;;;;;;2.40;1.80;;;22.00;56.00;;;;;;5095736;28;20169;-68
2022/05/18 00:26:06;;;;;;;2.60;1.80;;;22.00;56.00;;;;;;5096103;28;20640;-67
2022/05/18 00:28:33;;;;;;;2.05;1.85;;;22.00;56.10;;;;;;5095446;28;20651;-67
2022/05/18 00:30:58;;;;;;;2.40;2.00;;;22.00;56.10;;;;;;5095594;28;20655;-67
2022/05/18 00:33:24;;;;;;;2.33;1.83;;;22.00;56.00;;;;;;5095088;28;20174;-66
2022/05/18 00:35:49;;;;;;;4.72;2.40;;;22.00;56.00;;;;;;5095573;28;20178;-66
2022/05/18 00:38:15;;;;;;;2.47;1.70;;;22.00;56.00;;;;;;5095693;28;20654;-66
2022/05/18 00:40:44;;;;;;;2.17;1.98;;;22.00;56.00;;;;;;5094683;28;20350;-66
2022/05/18 00:43:15;;;;;;;3.38;2.30;;;21.90;56.00;;;;;;5095811;28;20178;-67
2022/05/18 00:45:41;;;;;;;3.17;1.73;;;21.90;56.00;;;;;;5095506;28;20174;-67
2022/05/18 00:48:06;;;;;;;3.00;2.20;;;22.00;56.00;;;;;;5094756;28;20555;-67
2022/05/18 00:50:33;;;;;;;2.60;2.17;;;21.90;55.90;;;;;;5095548;28;20176;-67
2022/05/18 00:53:09;;;;;;;2.50;2.10;;;21.90;55.90;;;;;;5095199;28;20182;-67
2022/05/18 00:55:37;;;;;;;1.85;1.60;;;21.90;56.00;;;;;;5094656;28;20173;-68
2022/05/18 00:58:22;;;;;;;2.60;1.98;;;21.90;55.90;;;;;;5095463;28;20177;-67
2022/05/18 01:00:48;;;;;;;2.53;2.33;;;21.90;56.00;;;;;;5093754;28;20209;-66
2022/05/18 01:03:20;;;;;;;2.25;1.90;;;21.90;56.00;;;;;;5093165;28;20277;-66
2022/05/18 01:05:49;;;;;;;2.13;1.80;;;21.90;56.00;;;;;;5093648;28;20217;-66
2022/05/18 01:08:16;;;;;;;2.25;1.80;;;21.90;55.90;;;;;;5094193;28;20515;-67
2022/05/18 01:10:41;;;;;;;2.40;2.20;;;21.90;55.90;;;;;;5092681;28;20637;-67
2022/05/18 01:13:07;;;;;;;3.05;1.98;;;21.90;55.90;;;;;;5095029;28;20203;-68
2022/05/18 01:15:33;;;;;;;2.42;1.85;;;21.90;55.90;;;;;;5092965;28;20199;-68
2022/05/18 01:17:59;;;;;;;2.33;2.13;;;21.90;56.00;;;;;;5093980;28;20178;-68
2022/05/18 01:20:35;;;;;;;3.05;2.05;;;21.80;55.90;;;;;;5093258;28;20636;-68
2022/05/18 01:23:32;;;;;;;3.13;1.98;;;21.90;56.00;;;;;;5092284;28;20174;-68
2022/05/18 01:26:12;;;;;;;2.13;1.92;;;21.80;55.90;;;;;;5092957;28;20178;-67
2022/05/18 01:28:39;;;;;;;2.30;2.00;;;21.80;55.90;;;;;;5092907;28;20173;-67
2022/05/18 01:31:05;;;;;;;2.00;1.80;;;21.80;55.90;;;;;;5092189;28;20199;-66
2022/05/18 01:33:31;;;;;;;2.33;1.98;;;21.80;55.90;;;;;;5093958;28;20174;-66
2022/05/18 01:35:56;;;;;;;3.00;1.92;;;21.80;55.90;;;;;;5093803;28;20204;-66
2022/05/18 01:38:22;;;;;;;2.72;2.08;;;21.80;56.00;;;;;;5093053;28;20177;-66
2022/05/18 01:41:14;;;;;;;2.10;1.90;;;21.80;55.90;;;;;;5093480;28;20586;-67
2022/05/18 01:43:46;;;;;;;1.80;1.70;;;21.80;56.00;;;;;;5091563;28;20169;-67
2022/05/18 01:46:13;;;;;;;4.00;2.45;;;21.80;56.00;;;;;;5092833;28;20185;-67
2022/05/18 01:48:41;;;;;;;2.72;2.53;;;21.80;56.00;;;;;;5093500;28;20678;-67
2022/05/18 01:51:07;;;;;;;2.17;2.00;;;21.80;56.00;;;;;;5093053;28;20202;-67
2022/05/18 01:53:33;;;;;;;2.40;2.03;;;21.80;56.00;;;;;;5094033;28;20197;-68
2022/05/18 01:55:58;;;;;;;2.80;1.95;;;21.80;56.60;;;;;;5093647;28;20261;-68
2022/05/18 01:58:24;;;;;;;2.17;2.00;;;21.80;56.00;;;;;;5092969;28;20166;-67
2022/05/18 02:00:49;;;;;;;2.55;2.33;;;21.70;55.90;;;;;;5093254;28;20286;-67
2022/05/18 02:03:16;;;;;;;2.20;1.90;;;21.80;56.00;;;;;;5093371;28;20245;-66
2022/05/18 02:05:42;;;;;;;2.47;2.38;;;21.80;56.00;;;;;;5092221;28;20188;-66
2022/05/18 02:08:07;;;;;;;2.20;2.00;;;21.70;56.00;;;;;;5093398;28;20170;-67
2022/05/18 02:10:33;;;;;;;2.05;1.88;;;21.70;56.00;;;;;;5093683;28;20178;-68
2022/05/18 02:12:58;;;;;;;2.05;1.85;;;21.70;56.00;;;;;;5092563;28;20174;-68
2022/05/18 02:15:24;;;;;;;2.03;1.83;;;21.70;56.00;;;;;;5093157;28;20551;-68
2022/05/18 02:17:50;;;;;;;2.28;2.08;;;21.70;56.00;;;;;;5092938;28;20174;-68
2022/05/18 02:20:16;;;;;;;2.88;2.00;;;21.70;56.00;;;;;;5092282;28;20534;-67
2022/05/18 02:22:41;;;;;;;2.63;1.92;;;21.70;56.00;;;;;;5092751;28;20173;-68
2022/05/18 02:25:07;;;;;;;2.17;1.90;;;21.70;56.00;;;;;;5092813;28;20205;-68
2022/05/18 02:27:33;;;;;;;2.08;1.90;;;21.70;56.00;;;;;;5091040;28;20174;-68
2022/05/18 02:29:59;;;;;;;2.25;2.05;;;21.70;56.00;;;;;;5092208;28;20522;-66
2022/05/18 02:32:24;;;;;;;2.00;1.80;;;21.70;56.00;;;;;;5092482;28;20192;-67
2022/05/18 02:34:50;;;;;;;2.78;2.00;;;21.70;56.00;;;;;;5091437;28;20253;-66
2022/05/18 02:37:15;;;;;;;2.20;2.00;;;21.60;56.00;;;;;;5092581;28;20188;-67
2022/05/18 02:39:41;;;;;;;2.40;2.20;;;21.60;56.00;;;;;;5092098;28;20213;-67
2022/05/18 02:42:06;;;;;;;2.95;2.38;;;21.70;56.00;;;;;;5091557;28;20239;-66
2022/05/18 02:44:32;;;;;;;2.63;2.00;;;21.60;56.00;;;;;;5092415;28;20595;-67
2022/05/18 02:46:59;;;;;;;2.00;1.90;;;21.70;56.00;;;;;;5091181;28;20293;-67
2022/05/18 02:49:25;;;;;;;2.50;2.05;;;21.60;56.00;;;;;;5092256;28;20200;-67
2022/05/18 02:51:51;;;;;;;2.40;2.00;;;21.60;56.00;;;;;;5092137;28;20186;-67
2022/05/18 02:57:01;;;;;;;2.50;2.30;;;21.60;56.00;;;;;;5092226;28;20679;-68
2022/05/18 02:59:27;;;;;;;2.45;2.20;;;21.60;56.00;;;;;;5092054;28;20201;-67
2022/05/18 03:01:52;;;;;;;2.60;2.40;;;21.60;56.00;;;;;;5091336;28;20169;-67
2022/05/18 03:04:18;;;;;;;2.20;2.00;;;21.60;56.00;;;;;;5092506;28;20178;-67
2022/05/18 03:06:44;;;;;;;2.50;2.17;;;21.60;56.00;;;;;;5091919;28;20632;-67
2022/05/18 03:09:09;;;;;;;2.70;2.22;;;21.60;56.00;;;;;;5092017;28;20177;-67
2022/05/18 03:11:35;;;;;;;2.35;2.15;;;21.50;56.00;;;;;;5091839;28;20322;-68
2022/05/18 03:14:00;;;;;;;2.47;2.28;;;21.60;56.60;;;;;;5092148;28;20199;-68
2022/05/18 03:16:26;;;;;;;2.40;2.20;;;21.50;56.00;;;;;;5091278;28;20581;-68
2022/05/18 03:18:51;;;;;;;2.30;2.10;;;21.60;56.00;;;;;;5090267;28;20627;-68
2022/05/18 03:24:01;;;;;;;2.53;2.10;;;21.50;56.00;;;;;;5091314;28;20230;-68
2022/05/18 03:26:26;;;;;;;2.08;1.90;;;21.50;56.00;;;;;;5092095;28;20648;-67
2022/05/18 03:28:54;;;;;;;2.90;2.40;;;21.50;56.00;;;;;;5091620;28;20189;-67
2022/05/18 03:31:19;;;;;;;2.40;2.20;;;21.50;56.00;;;;;;5091425;28;20178;-67
2022/05/18 03:33:45;;;;;;;2.10;1.85;;;21.50;56.00;;;;;;5091705;28;20169;-67
2022/05/18 03:36:12;;;;;;;2.60;2.40;;;21.50;56.00;;;;;;5090983;28;20178;-66
2022/05/18 03:38:38;;;;;;;2.05;1.90;;;21.50;56.00;;;;;;5091071;28;20607;-67
2022/05/18 03:41:03;;;;;;;3.47;2.28;;;21.50;56.00;;;;;;5091875;28;20336;-67
2022/05/18 03:43:32;;;;;;;2.72;1.95;;;21.50;56.00;;;;;;5091035;28;20176;-66
2022/05/18 03:46:00;;;;;;;2.38;2.10;;;21.50;56.00;;;;;;5091426;28;20678;-67
2022/05/18 03:48:26;;;;;;;3.25;2.40;;;21.50;56.00;;;;;;5091937;28;20178;-66
2022/05/18 03:50:52;;;;;;;2.50;2.13;;;21.50;56.70;;;;;;5090664;28;20173;-67
2022/05/18 03:53:18;;;;;;;2.58;2.38;;;21.50;56.00;;;;;;5090321;28;20170;-68
2022/05/18 03:55:43;;;;;;;2.10;1.90;;;21.50;56.00;;;;;;5091592;28;20169;-68
2022/05/18 03:58:09;;;;;;;2.08;1.98;;;21.50;56.00;;;;;;5090951;28;20173;-68
2022/05/18 04:00:35;;;;;;;2.58;2.38;;;21.50;56.00;;;;;;5091641;28;20209;-66
2022/05/18 04:03:01;;;;;;;2.17;1.98;;;21.40;56.00;;;;;;5091910;28;20264;-67
2022/05/18 04:05:26;;;;;;;2.45;2.25;;;21.50;56.00;;;;;;5090963;28;20177;-67
2022/05/18 04:07:53;;;;;;;2.92;2.30;;;21.50;56.00;;;;;;5091574;28;20283;-66
2022/05/18 04:10:19;;;;;;;2.40;2.20;;;21.50;56.00;;;;;;5091828;28;20265;-68
2022/05/18 04:12:44;;;;;;;2.47;2.28;;;21.50;56.00;;;;;;5090595;28;20261;-68
2022/05/18 04:15:16;;;;;;;3.45;2.83;;;21.50;56.00;;;;;;5091777;28;20173;-68
2022/05/18 04:17:46;;;;;;;2.85;2.55;;;21.50;56.00;;;;;;5091488;28;20174;-68
2022/05/18 04:20:12;;;;;;;2.15;2.03;;;21.40;55.90;;;;;;5090642;28;20209;-68
2022/05/18 04:22:38;;;;;;;2.33;2.13;;;21.40;55.90;;;;;;5091299;28;20253;-68
2022/05/18 04:25:04;;;;;;;3.30;2.30;;;21.50;56.00;;;;;;5091432;28;20667;-67
2022/05/18 04:27:31;;;;;;;2.78;2.13;;;21.40;55.90;;;;;;5090596;28;20303;-68
2022/05/18 04:29:56;;;;;;;2.45;2.25;;;21.50;56.60;;;;;;5091010;28;20192;-68
2022/05/18 04:32:22;;;;;;;2.70;2.38;;;21.40;55.90;;;;;;5090816;28;20256;-67
2022/05/18 04:34:48;;;;;;;3.53;2.83;;;21.50;55.90;;;;;;5091226;28;20181;-67
2022/05/18 04:37:17;;;;;;;2.25;2.15;;;21.50;56.00;;;;;;5091191;28;20685;-66
2022/05/18 04:39:43;;;;;;;2.30;2.10;;;21.40;55.90;;;;;;5090261;28;20688;-66
2022/05/18 04:42:09;;;;;;;2.38;2.25;;;21.50;55.90;;;;;;5091489;28;20272;-67
2022/05/18 04:44:34;;;;;;;2.08;1.98;;;21.40;55.90;;;;;;5091378;28;20180;-67
2022/05/18 04:47:00;;;;;;;2.30;2.10;;;21.50;55.90;;;;;;5090863;28;20170;-68
2022/05/18 04:49:26;;;;;;;2.53;2.33;;;21.50;55.90;;;;;;5091359;28;20648;-67
2022/05/18 04:51:51;;;;;;;2.28;2.13;;;21.50;56.00;;;;;;5093931;28;20166;-68
2022/05/18 04:54:17;;;;;;;2.50;2.30;;;21.50;55.90;;;;;;5094345;28;20203;-67
2022/05/18 04:56:42;;;;;;;2.47;2.28;;;21.50;55.90;;;;;;5094544;28;20170;-68
2022/05/18 04:59:08;;;;;;;2.45;2.25;;;21.50;55.90;;;;;;5095090;28;20190;-68
2022/05/18 05:01:34;;;;;;;2.90;2.10;;;21.50;55.90;;;;;;5094066;28;20204;-67
2022/05/18 05:04:00;;;;;;;2.30;2.10;;;21.50;55.90;;;;;;5094387;28;20192;-67
2022/05/18 05:06:26;;;;;;;2.33;2.13;;;21.50;55.90;;;;;;5094323;28;20267;-66
2022/05/18 05:08:52;;;;;;;2.70;2.50;;;21.50;55.90;;;;;;5093404;28;20762;-67
2022/05/18 05:11:18;;;;;;;2.40;2.17;;;21.50;55.90;;;;;;5094520;28;20379;-68
2022/05/18 05:13:43;;;;;;;2.78;2.55;;;21.50;55.80;;;;;;5094268;28;20286;-68
2022/05/18 05:16:09;;;;;;;2.70;2.50;;;21.50;55.80;;;;;;5093440;28;20226;-68
2022/05/18 05:18:35;;;;;;;2.70;2.50;;;21.50;55.90;;;;;;5094000;28;20174;-68
2022/05/18 05:21:01;;;;;;;3.03;2.08;;;21.50;55.90;;;;;;5094024;28;20209;-68
2022/05/18 05:23:27;;;;;;;2.35;2.15;;;21.50;55.90;;;;;;5093232;28;20170;-68
2022/05/18 05:25:53;;;;;;;2.50;2.30;;;21.40;56.00;;;;;;5094114;28;20181;-68
2022/05/18 05:28:18;;;;;;;2.30;2.10;;;21.40;56.00;;;;;;5094287;28;20174;-67
2022/05/18 05:30:44;;;;;;;2.53;2.30;;;21.40;56.00;;;;;;5093258;28;20261;-68
2022/05/18 05:33:11;;;;;;;2.33;2.05;;;21.40;56.00;;;;;;5094233;28;20177;-67
2022/05/18 05:35:40;;;;;;;2.55;2.35;;;21.50;56.00;;;;;;5093389;28;20208;-67
2022/05/18 05:38:05;;;;;;;2.13;2.00;;;21.50;56.70;;;;;;5093796;28;20193;-67
2022/05/18 05:40:31;;;;;;;2.83;2.45;;;21.50;56.00;;;;;;5094049;28;20241;-67
2022/05/18 05:42:56;;;;;;;2.15;1.98;;;21.50;56.00;;;;;;5093026;28;20188;-67
2022/05/18 05:45:22;;;;;;;2.42;2.22;;;21.50;56.00;;;;;;5094029;28;20201;-67
2022/05/18 05:47:47;;;;;;;2.53;2.15;;;21.50;56.00;;;;;;5093559;28;20170;-67
2022/05/18 05:50:13;;;;;;;2.25;2.10;;;21.50;56.00;;;;;;5093052;28;20608;-68
2022/05/18 05:52:39;;;;;;;2.30;2.10;;;21.50;56.00;;;;;;5093324;28;20662;-67
2022/05/18 05:55:05;;;;;;;2.53;2.33;;;21.50;56.00;;;;;;5093965;28;20212;-68
2022/05/18 05:57:30;;;;;;;2.53;2.33;;;21.50;56.00;;;;;;5093216;28;20205;-68
2022/05/18 05:59:56;;;;;;;2.40;2.20;;;21.50;56.10;;;;;;5093316;28;20232;-67
2022/05/18 06:02:22;;;;;;;2.28;2.17;;;21.50;55.90;;;;;;5093431;28;20210;-66
2022/05/18 06:04:47;;;;;;;1.90;1.80;;;21.50;55.90;;;;;;5092577;28;20506;-66
2022/05/18 06:07:13;;;;;;;2.13;2.03;;;21.60;56.00;;;;;;5093079;28;20689;-66
2022/05/18 06:09:39;;;;;;;2.30;2.20;;;21.60;56.00;;;;;;5093298;28;20251;-67
2022/05/18 06:12:04;;;;;;;2.20;2.10;;;21.60;56.70;;;;;;5092724;28;20192;-68
2022/05/18 06:14:30;;;;;;;2.30;2.10;;;21.60;56.00;;;;;;5093263;28;20185;-68
2022/05/18 06:16:55;;;;;;;2.60;2.40;;;21.60;56.00;;;;;;5092905;28;20551;-68
2022/05/18 06:19:21;;;;;;;2.60;2.40;;;21.60;56.00;;;;;;5092444;28;20210;-68
2022/05/18 06:21:47;;;;;;;2.20;2.00;;;21.60;56.00;;;;;;5092776;28;20185;-68
2022/05/18 06:24:14;;;;;;;2.45;2.28;;;21.60;55.90;;;;;;5093292;28;20173;-68
2022/05/18 06:26:39;;;;;;;2.45;2.00;;;21.70;55.90;;;;;;5092300;28;20202;-67
2022/05/18 06:29:05;;;;;;;2.30;2.10;;;21.70;55.90;;;;;;5093160;28;20271;-68
2022/05/18 06:31:30;;;;;;;2.42;2.20;;;21.70;55.90;;;;;;5093003;28;20204;-67
2022/05/18 06:33:56;;;;;;;2.28;2.10;;;21.70;55.80;;;;;;5092146;28;20193;-66
2022/05/18 06:36:22;;;;;;;2.42;1.98;;;21.80;55.80;;;;;;5092698;28;20166;-66
2022/05/18 06:38:47;;;;;;;2.42;2.22;;;21.80;55.80;;;;;;5092288;28;20207;-67
2022/05/18 06:41:22;;;;;;;2.50;2.30;;;21.80;55.70;;;;;;5092045;28;20231;-67
2022/05/18 06:43:55;;;;;;;2.17;2.08;;;21.80;55.70;;;;;;5092385;28;20169;-66
2022/05/18 06:46:21;;;;;;;2.85;2.30;;;21.80;55.90;;;;;;5091987;28;20218;-70
2022/05/18 06:48:48;;;;;;;2.60;2.40;;;21.80;56.20;;;;;;5092302;28;20637;-72
2022/05/18 06:51:19;;;;;;;2.42;2.22;;;21.80;56.20;;;;;;5092546;28;20218;-71
2022/05/18 06:53:45;;;;;;;2.25;2.05;;;21.70;56.10;;;;;;5091548;28;20279;-72
2022/05/18 06:56:11;;;;;;;2.92;2.45;;;21.70;56.20;;;;;;5092516;28;20173;-72
2022/05/18 06:58:37;;;;;;;2.60;2.17;;;21.70;56.20;;;;;;5092334;28;20180;-72
2022/05/18 07:01:04;;;;;;;2.35;2.25;;;21.70;56.60;;;;;;5091568;28;20221;-70
2022/05/18 07:03:29;;;;;;;4.28;2.88;;;21.70;56.40;;;;;;5092250;28;20481;-72
2022/05/18 07:05:55;;;;;;;4.35;2.90;;;21.80;56.50;;;;;;5092016;28;20226;-70
2022/05/18 07:08:20;;;;;;;2.90;2.60;;;21.80;56.30;;;;;;5091609;28;20586;-68
2022/05/18 07:10:46;;;;;;;3.50;2.58;;;21.80;56.50;;;;;;5092129;28;20539;-72
2022/05/18 07:13:16;;;;;;;3.00;2.70;;;21.80;56.80;;;;;;5091621;28;20455;-72
2022/05/18 07:15:43;;;;;;;3.38;2.58;;;21.90;56.90;;;;;;5091368;28;20281;-72
2022/05/18 07:18:08;;;;;;;3.08;2.78;;;22.00;56.90;;;;;;5092118;28;20208;-71
2022/05/18 07:20:34;;;;;;;3.88;2.90;;;22.00;56.80;;;;;;5092116;28;20213;-72
2022/05/18 07:22:59;;;;;;;2.65;2.45;;;22.10;56.90;;;;;;5091268;28;20598;-71
2022/05/18 07:25:25;;;;;;;3.00;2.70;;;22.10;57.00;;;;;;5091871;28;20280;-72
2022/05/18 07:27:50;;;;;;;3.33;2.35;;;22.10;57.00;;;;;;5091506;28;20256;-71
2022/05/18 07:30:16;;;;;;;3.78;2.70;;;22.00;57.10;;;;;;5091030;28;20229;-71
2022/05/18 07:32:42;;;;;;;3.92;2.88;;;22.00;57.20;;;;;;5091039;28;20184;-73
2022/05/18 07:35:08;;;;;;;4.13;2.80;;;22.00;57.30;;;;;;5092036;28;20185;-72
2022/05/18 07:37:33;;;;;;;4.28;2.67;;;22.00;57.40;;;;;;5091353;28;20170;-72
2022/05/18 07:39:59;;;;;;;4.70;3.28;;;22.00;57.30;;;;;;5091604;28;20238;-72
2022/05/18 07:42:24;;;;;;;2.83;2.63;;;22.00;57.40;;;;;;5091072;28;20174;-70
2022/05/18 07:44:50;;;;;;;5.38;3.30;;;22.00;57.30;;;;;;5091369;28;20520;-71
2022/05/18 07:47:15;;;;;;;3.00;2.63;;;22.10;57.20;;;;;;5091442;28;20604;-70
2022/05/18 07:49:41;;;;;;;3.70;2.50;;;22.00;57.20;;;;;;5090803;28;20174;-71
2022/05/18 07:52:07;;;;;;;3.20;2.60;;;22.00;57.20;;;;;;5091708;28;20189;-71
2022/05/18 07:54:33;;;;;;;4.38;2.33;;;22.00;57.20;;;;;;5091550;28;20274;-71
2022/05/18 07:56:58;;;;;;;2.95;2.60;;;22.00;57.20;;;;;;5090527;28;20166;-72
2022/05/18 07:59:24;;;;;;;2.80;2.60;;;22.00;57.10;;;;;;5091300;28;20210;-72
2022/05/18 08:01:50;;;;;;;4.18;2.83;;;22.00;57.10;;;;;;5090890;28;20185;-71
2022/05/18 08:04:16;;;;;;;2.88;2.42;;;22.00;57.10;;;;;;5090889;28;20174;-71
2022/05/18 08:06:41;;;;;;;2.70;2.50;;;22.00;57.10;;;;;;5090476;28;20739;-71
2022/05/18 08:09:07;;;;;;;3.17;2.83;;;22.00;57.10;;;;;;5091530;28;20178;-72
2022/05/18 08:17:01;;;;;;;3.20;2.90;;;22.00;57.20;;;;;;5091475;28;20196;-73
2022/05/18 08:19:26;;;;;;;3.00;2.70;;;22.00;57.10;;;;;;5090413;28;20209;-73
2022/05/18 08:21:52;;;;;;;4.03;2.75;;;22.00;57.00;;;;;;5090834;28;20170;-71
2022/05/18 08:24:17;;;;;;;5.90;2.92;;;22.00;56.90;;;;;;5091333;28;20178;-71
2022/05/18 08:26:43;;;;;;;6.28;3.55;;;22.10;57.00;;;;;;5092856;28;20166;-71
2022/05/18 08:29:08;;;;;;;4.47;2.80;;;22.10;56.90;;;;;;5095181;28;20166;-70
2022/05/18 08:31:34;;;;;;;3.38;3.00;;;22.10;56.90;;;;;;5094618;28;20498;-70
2022/05/18 08:34:00;;;;;;;5.32;2.78;;;22.10;56.90;;;;;;5095064;28;20212;-70
2022/05/18 08:36:26;;;;;;;5.63;2.92;;;22.20;57.00;;;;;;5095361;28;20178;-68
2022/05/18 08:38:53;;;;;;;4.82;3.08;;;22.20;56.80;;;;;;5094056;28;20227;-67
2022/05/18 08:41:20;;;;;;;4.93;2.97;;;22.20;56.80;;;;;;5095010;28;20192;-67
2022/05/18 08:43:51;;;;;;;3.95;2.78;;;22.30;56.90;;;;;;5094681;28;20178;-68
2022/05/18 08:46:35;;;;;;;5.18;3.00;;;22.30;56.80;;;;;;5093104;28;20174;-68
2022/05/18 08:49:11;;;;;;;5.07;2.70;;;22.30;56.80;;;;;;5095167;28;20169;-68
2022/05/18 08:51:57;;;;;;;4.03;2.72;;;22.40;56.80;;;;;;5094538;28;20189;-69
2022/05/18 08:54:38;;;;;;;4.15;3.05;;;22.40;56.80;;;;;;5093111;28;20518;-69
2022/05/18 08:57:04;;;;;;;4.63;3.15;;;22.40;56.80;;;;;;5093407;28;20196;-69
2022/05/18 08:59:33;;;;;;;3.30;2.45;;;22.50;56.80;;;;;;5093204;28;20581;-69
2022/05/18 09:01:59;;;;;;;2.90;2.38;;;22.50;56.90;;;;;;5092909;28;20174;-68
2022/05/18 09:04:52;;;;;;;5.18;3.10;;;22.50;56.90;;;;;;5093481;28;20664;-68
2022/05/18 09:07:19;;;;;;;3.58;2.80;;;22.50;56.90;;;;;;5092745;28;20271;-69
2022/05/18 09:10:14;;;;;;;7.43;3.17;;;22.60;56.80;;;;;;5093118;28;20292;-70
2022/05/18 09:12:44;;;;;;;4.85;2.92;;;22.60;56.70;;;;;;5092863;28;20184;-73
2022/05/18 09:15:13;;;;;;;3.13;2.50;;;22.60;56.70;;;;;;5093915;28;20186;-72
2022/05/18 09:18:07;;;;;;;6.35;3.42;;;22.60;56.80;;;;;;5095566;28;20185;-73
2022/05/18 09:20:54;;;;;;;4.78;3.25;;;22.60;56.90;;;;;;5086527;28;20240;-72
2022/05/18 09:23:24;;;;;;;5.82;3.58;;;22.60;57.00;;;;;;5093333;28;20166;-71
2022/05/18 09:26:17;;;;;;;6.00;3.60;;;22.70;57.30;;;;;;5094149;28;20174;-70
2022/05/18 09:28:50;;;;;;;7.55;3.95;;;22.70;57.20;;;;;;5093517;28;20240;-72
2022/05/18 09:31:39;;;;;;;5.75;4.13;;;22.70;57.20;;;;;;5094123;28;20694;-70
2022/05/18 09:34:29;;;;;;;4.65;3.83;;;22.80;57.30;;;;;;5094261;28;20177;-70
2022/05/18 09:37:09;;;;;;;10.30;3.95;;;22.80;57.30;;;;;;5092684;28;20230;-71
2022/05/18 09:39:40;;;;;;;5.57;3.30;;;22.80;57.30;;;;;;5093459;28;20720;-71
2022/05/18 09:42:09;;;;;;;4.72;3.33;;;22.80;57.30;;;;;;5092122;28;20195;-71
2022/05/18 09:44:46;;;;;;;4.20;3.55;;;22.90;57.30;;;;;;5092390;28;20177;-71
2022/05/18 09:47:22;;;;;;;3.95;3.17;;;22.90;57.30;;;;;;5093986;28;20293;-71
2022/05/18 09:49:52;;;;;;;8.50;3.63;;;22.90;57.30;;;;;;5091460;28;20196;-72
2022/05/18 09:52:20;;;;;;;5.15;3.50;;;22.90;57.30;;;;;;5092435;28;20651;-72
2022/05/18 09:54:45;;;;;;;3.53;3.22;;;22.90;57.30;;;;;;5093463;28;20178;-73
2022/05/18 09:57:17;;;;;;;5.22;3.78;;;22.90;57.40;;;;;;5091823;28;20227;-74
2022/05/18 09:59:45;;;;;;;4.70;2.97;;;22.90;57.40;;;;;;5092032;28;20579;-73
2022/05/18 10:08:12;;;;;;;3.33;3.03;;;23.00;57.30;;;;;;5093280;28;20224;-72
2022/05/18 10:10:38;;;;;;;4.80;3.17;;;23.00;57.20;;;;;;5092157;28;20550;-72
2022/05/18 10:13:25;;;;;;;4.55;3.30;;;23.00;57.20;;;;;;5092000;28;20170;-75
2022/05/18 10:16:03;;;;;;;4.43;3.58;;;23.00;57.20;;;;;;5091793;28;20243;-73
2022/05/18 10:18:41;;;;;;;6.97;3.78;;;23.10;57.10;;;;;;5090804;28;20287;-73
2022/05/18 10:21:12;;;;;;;3.38;3.10;;;23.10;57.00;;;;;;5091877;28;20290;-72
2022/05/18 10:23:59;;;;;;;4.25;3.33;;;23.10;57.10;;;;;;5092777;28;20217;-74
2022/05/18 10:26:30;;;;;;;10.73;3.65;;;23.10;57.10;;;;;;5091917;28;20551;-68
2022/05/18 10:29:06;;;;;;;5.03;3.30;;;23.10;57.20;;;;;;5093151;28;20235;-68
2022/05/18 10:31:46;;;;;;;4.10;3.13;;;23.10;57.00;;;;;;5092799;28;20184;-68
2022/05/18 10:34:18;;;;;;;3.97;3.40;;;23.10;57.00;;;;;;5093251;28;20605;-69
2022/05/18 10:36:50;;;;;;;5.35;3.42;;;23.20;57.10;;;;;;5091223;28;20268;-72
2022/05/18 10:39:28;;;;;;;7.07;3.65;;;23.20;57.10;;;;;;5091895;28;20704;-69
2022/05/18 10:41:53;;;;;;;4.22;3.35;;;23.10;57.00;;;;;;5092531;28;20177;-67
2022/05/18 10:44:20;;;;;;;7.00;3.15;;;23.20;57.10;;;;;;5092491;28;20648;-68
2022/05/18 10:46:47;;;;;;;4.90;3.42;;;23.20;57.00;;;;;;5091736;28;20307;-68
2022/05/18 10:49:29;;;;;;;5.88;3.38;;;23.20;57.00;;;;;;5090426;28;20679;-66
2022/05/18 10:51:55;;;;;;;9.02;3.90;;;23.20;57.00;;;;;;5092603;28;20197;-67
2022/05/18 10:54:25;;;;;;;7.47;3.67;;;23.20;57.10;;;;;;5090631;28;20198;-67
2022/05/18 10:56:52;;;;;;;4.60;3.00;;;23.20;57.00;;;;;;5092367;28;20193;-67
2022/05/18 10:59:42;;;;;;;7.65;3.28;;;23.30;57.00;;;;;;5090645;28;20237;-69
2022/05/18 11:02:15;;;;;;;5.80;3.13;;;23.30;56.90;;;;;;5092334;28;20234;-68
2022/05/18 11:05:00;;;;;;;4.90;3.10;;;23.30;56.90;;;;;;5090619;28;20702;-68
2022/05/18 11:07:27;;;;;;;5.15;3.20;;;23.40;56.90;;;;;;5090111;28;20233;-67
2022/05/18 11:09:53;;;;;;;5.72;2.95;;;23.40;56.90;;;;;;5091876;28;20172;-68
2022/05/18 11:12:43;;;;;;;4.78;3.20;;;23.40;56.90;;;;;;5092192;28;20256;-68
2022/05/18 11:15:12;;;;;;;3.88;3.45;;;23.40;56.90;;;;;;5091440;28;20169;-69
2022/05/18 11:18:10;;;;;;;6.68;3.58;;;23.40;57.00;;;;;;5090299;28;20176;-68
2022/05/18 11:21:00;;;;;;;4.75;3.70;;;23.40;57.00;;;;;;5090816;28;20217;-68
2022/05/18 11:23:53;;;;;;;5.22;3.50;;;23.40;57.00;;;;;;5090767;28;20165;-69
2022/05/18 11:26:30;;;;;;;4.95;3.28;;;23.50;56.90;;;;;;5092094;28;20169;-69
2022/05/18 11:29:16;;;;;;;5.55;3.17;;;23.50;56.80;;;;;;5090827;28;20578;-67
2022/05/18 11:32:01;;;;;;;3.13;2.88;;;23.50;56.70;;;;;;5090473;28;20223;-68
2022/05/18 11:34:49;;;;;;;4.88;3.65;;;23.60;56.70;;;;;;5090968;28;20267;-67
2022/05/18 11:37:17;;;;;;;3.45;3.15;;;23.60;56.60;;;;;;5090665;28;20256;-67
2022/05/18 11:39:54;;;;;;;4.35;3.33;;;23.70;56.60;;;;;;5091421;28;20209;-68
2022/05/18 11:42:30;;;;;;;5.40;3.50;;;23.70;56.50;;;;;;5089800;28;20262;-68
2022/05/18 11:44:58;;;;;;;3.65;3.10;;;23.80;56.70;;;;;;5091341;28;20214;-68
2022/05/18 11:47:59;;;;;;;4.10;3.40;;;23.90;56.70;;;;;;5091575;28;20562;-67
2022/05/18 11:50:40;;;;;;;4.53;3.20;;;24.00;56.60;;;;;;5037443;28;20686;-67
2022/05/18 11:53:47;;;;;;;3.78;3.05;;;24.00;56.60;;;;;;5090338;28;20256;-67
2022/05/18 11:56:39;;;;;;;5.03;3.20;;;24.10;56.40;;;;;;5050983;28;20185;-67
2022/05/18 11:59:33;;;;;;;3.28;3.00;;;24.20;56.30;;;;;;5089815;28;20291;-68
2022/05/18 12:02:14;;;;;;;4.85;3.15;;;24.20;56.20;;;;;;5091431;28;20207;-67
2022/05/18 12:04:57;;;;;;;5.72;3.33;;;24.30;56.20;;;;;;5090317;28;20238;-67
2022/05/18 12:07:34;;;;;;;5.45;2.60;;;24.30;56.20;;;;;;5091038;28;20236;-67
2022/05/18 12:10:02;;;;;;;3.63;2.92;;;24.20;56.30;;;;;;5089343;28;20252;-67
2022/05/18 12:12:44;;;;;;;4.55;2.97;;;24.20;56.50;;;;;;5089967;28;20609;-68
2022/05/18 12:15:49;;;;;;;3.33;3.03;;;24.10;56.60;;;;;;5089924;28;20177;-68
2022/05/18 12:18:39;;;;;;;4.20;2.92;;;24.10;56.60;;;;;;5027938;28;20183;-67
2022/05/18 12:21:07;;;;;;;3.20;2.85;;;24.20;56.50;;;;;;5072788;28;20569;-67
2022/05/18 12:23:39;;;;;;;3.35;3.00;;;24.30;56.30;;;;;;5089404;28;20242;-68
2022/05/18 12:26:08;;;;;;;3.63;3.33;;;24.30;56.10;;;;;;5090041;28;20617;-68
2022/05/18 12:28:33;;;;;;;4.30;2.75;;;24.30;56.10;;;;;;5089632;28;20457;-67
2022/05/18 12:31:00;;;;;;;4.75;2.85;;;24.40;56.10;;;;;;5088785;28;20231;-69
2022/05/18 12:33:25;;;;;;;3.88;2.90;;;24.40;56.10;;;;;;5088146;28;20181;-68
2022/05/18 12:36:06;;;;;;;3.55;2.70;;;24.30;56.10;;;;;;5090415;28;20502;-69
2022/05/18 12:38:57;;;;;;;2.75;2.42;;;24.20;56.10;;;;;;5090279;28;20205;-70
2022/05/18 12:41:27;;;;;;;3.85;2.80;;;24.20;56.30;;;;;;5091072;28;20213;-70
2022/05/18 12:44:09;;;;;;;3.40;3.10;;;24.10;56.30;;;;;;5089068;28;20180;-69
2022/05/18 12:46:51;;;;;;;3.80;2.85;;;24.10;56.40;;;;;;5089771;28;20244;-69
2022/05/18 12:49:37;;;;;;;3.88;3.28;;;24.10;56.30;;;;;;5069002;28;20210;-69
2022/05/18 12:52:16;;;;;;;3.42;3.13;;;24.10;56.40;;;;;;5083134;28;20273;-69
2022/05/18 12:54:44;;;;;;;2.80;2.60;;;24.10;56.40;;;;;;5085469;28;20538;-71
2022/05/18 12:57:14;;;;;;;4.53;3.17;;;24.00;56.40;;;;;;5085638;28;20521;-70
2022/05/18 12:59:57;;;;;;;4.43;2.95;;;24.00;56.50;;;;;;5069074;28;20216;-71
2022/05/18 13:02:42;;;;;;;5.88;3.22;;;24.00;56.60;;;;;;5086025;28;20177;-70
2022/05/18 13:05:26;;;;;;;3.08;2.88;;;24.00;56.60;;;;;;5070521;28;20174;-69
2022/05/18 13:07:59;;;;;;;3.35;3.00;;;23.90;56.60;;;;;;5087946;28;20707;-69
2022/05/18 13:10:28;;;;;;;4.68;2.75;;;23.90;56.70;;;;;;5089377;28;20162;-71
2022/05/18 13:12:56;;;;;;;4.57;2.85;;;23.90;56.70;;;;;;5092221;28;20170;-71
2022/05/18 13:15:36;;;;;;;3.28;2.78;;;23.90;56.60;;;;;;5094242;28;20280;-72
2022/05/18 13:18:11;;;;;;;3.13;2.83;;;23.90;56.50;;;;;;5094087;28;20177;-71
2022/05/18 13:20:51;;;;;;;3.53;3.05;;;23.90;56.60;;;;;;5092785;28;20663;-72